createdAt,value
2022-12-13T00:00:40.396Z,-4.66
2022-12-13T00:05:44.516Z,-4.74
2022-12-13T00:10:48.721Z,-4.81
2022-12-13T00:15:52.897Z,-5.01
2022-12-13T00:20:57.090Z,-5.07
2022-12-13T00:26:01.215Z,-5.01
2022-12-13T00:31:35.208Z,-4.99
2022-12-13T00:36:09.568Z,-5.08
2022-12-13T00:41:13.727Z,-5.14
2022-12-13T00:46:17.978Z,-5.13
2022-12-13T00:51:22.052Z,-5.13
2022-12-13T00:56:26.217Z,-5.17
2022-12-13T01:01:30.505Z,-5.16
2022-12-13T01:06:34.613Z,-5.20
2022-12-13T01:16:43.054Z,-5.26
2022-12-13T01:21:47.070Z,-5.36
2022-12-13T01:26:51.480Z,-5.58
2022-12-13T01:31:55.418Z,-5.73
2022-12-13T01:36:58.253Z,-5.83
2022-12-13T01:42:01.867Z,-5.91
2022-12-13T01:47:06.015Z,-5.91
2022-12-13T01:52:10.211Z,-5.80
2022-12-13T01:57:14.351Z,-5.78
2022-12-13T02:02:18.540Z,-5.92
2022-12-13T02:07:23.658Z,-5.89
2022-12-13T02:12:30.075Z,-5.84
2022-12-13T02:17:31.038Z,-5.93
2022-12-13T02:22:35.179Z,-6.03
2022-12-13T02:27:42.671Z,-6.15
2022-12-13T02:32:43.559Z,-6.16
2022-12-13T02:37:47.731Z,-6.27
2022-12-13T02:42:51.902Z,-6.36
2022-12-13T02:47:56.048Z,-6.41
2022-12-13T02:53:00.242Z,-6.44
2022-12-13T02:58:04.403Z,-6.45
2022-12-13T03:03:08.656Z,-6.49
2022-12-13T03:08:12.756Z,-6.53
2022-12-13T03:13:16.922Z,-6.42
2022-12-13T03:18:21.053Z,-6.37
2022-12-13T03:23:25.244Z,-6.30
2022-12-13T03:28:29.424Z,-6.22
2022-12-13T03:33:33.584Z,-6.23
2022-12-13T03:38:37.773Z,-6.22
2022-12-13T03:43:41.927Z,-6.19
2022-12-13T03:48:46.096Z,-6.17
2022-12-13T03:53:50.273Z,-6.15
2022-12-13T03:58:54.419Z,-6.15
2022-12-13T04:03:58.627Z,-6.19
2022-12-13T04:09:02.758Z,-6.23
2022-12-13T04:14:06.953Z,-6.36
2022-12-13T04:19:11.112Z,-6.37
2022-12-13T04:24:15.291Z,-6.46
2022-12-13T04:29:19.471Z,-6.61
2022-12-13T04:34:26.217Z,-6.75
2022-12-13T04:39:27.804Z,-6.86
2022-12-13T04:44:36.511Z,-6.82
2022-12-13T04:49:36.150Z,-6.74
2022-12-13T04:54:40.308Z,-6.58
2022-12-13T04:59:44.466Z,-6.46
2022-12-13T05:04:48.654Z,-6.34
2022-12-13T05:09:52.794Z,-6.33
2022-12-13T05:14:59.009Z,-6.28
2022-12-13T05:20:01.193Z,-6.27
2022-12-13T05:25:05.295Z,-6.23
2022-12-13T05:30:09.558Z,-6.37
2022-12-13T05:35:14.447Z,-6.41
2022-12-13T05:40:17.850Z,-6.54
2022-12-13T05:45:22.021Z,-6.74
2022-12-13T05:50:26.160Z,-6.94
2022-12-13T05:55:30.341Z,-6.97
2022-12-13T06:00:34.539Z,-7.02
2022-12-13T06:05:38.677Z,-7.14
2022-12-13T06:10:42.867Z,-7.18
2022-12-13T06:15:47.041Z,-7.12
2022-12-13T06:20:51.222Z,-7.03
2022-12-13T06:25:55.359Z,-7.09
2022-12-13T06:30:59.549Z,-7.24
2022-12-13T06:36:03.712Z,-7.32
2022-12-13T06:41:07.865Z,-7.37
2022-12-13T06:46:12.098Z,-7.47
2022-12-13T06:51:22.584Z,-7.51
2022-12-13T06:56:20.401Z,-7.59
2022-12-13T07:01:25.139Z,-7.67
2022-12-13T07:06:26.832Z,-7.68
2022-12-13T07:11:31.000Z,-7.69
2022-12-13T07:16:35.196Z,-7.73
2022-12-13T07:21:39.322Z,-7.73
2022-12-13T07:26:43.525Z,-7.79
2022-12-13T07:31:47.697Z,-7.81
2022-12-13T07:36:49.992Z,-7.83
2022-12-13T07:41:54.150Z,-7.71
2022-12-13T07:46:58.387Z,-7.68
2022-12-13T07:52:02.464Z,-7.46
2022-12-13T07:57:06.633Z,-7.32
2022-12-13T08:02:10.934Z,-7.42
2022-12-13T08:07:14.976Z,-7.51
2022-12-13T08:12:22.481Z,-7.61
2022-12-13T08:17:23.313Z,-7.69
2022-12-13T08:22:27.496Z,-7.70
2022-12-13T08:27:31.664Z,-7.68
2022-12-13T08:32:35.824Z,-7.70
2022-12-13T08:37:40.009Z,-7.67
2022-12-13T08:42:44.175Z,-7.65
2022-12-13T08:47:48.401Z,-7.62
2022-12-13T08:52:52.519Z,-7.59
2022-12-13T08:57:56.699Z,-7.43
2022-12-13T09:03:00.890Z,-7.33
2022-12-13T09:08:23.951Z,-7.27
2022-12-13T09:13:11.757Z,-7.19
2022-12-13T09:18:14.973Z,-7.09
2022-12-13T09:23:23.881Z,-7.13
2022-12-13T09:28:21.753Z,-6.99
2022-12-13T09:33:30.046Z,-6.82
2022-12-13T09:38:30.071Z,-6.83
2022-12-13T09:43:42.860Z,-6.68
2022-12-13T09:48:38.366Z,-6.54
2022-12-13T09:53:42.544Z,-6.46
2022-12-13T09:58:46.739Z,-6.35
2022-12-13T10:03:50.947Z,-6.19
2022-12-13T10:08:57.908Z,-5.85
2022-12-13T10:14:01.475Z,-5.68
2022-12-13T10:19:03.421Z,-5.59
2022-12-13T10:24:26.020Z,-5.49
2022-12-13T10:29:11.847Z,-5.33
2022-12-13T10:34:15.930Z,-5.21
2022-12-13T10:39:20.132Z,-4.95
2022-12-13T10:49:28.415Z,-4.75
2022-12-13T10:54:38.341Z,-4.76
2022-12-13T10:59:36.762Z,-4.70
2022-12-13T11:04:40.965Z,-4.45
2022-12-13T11:09:45.097Z,-4.48
2022-12-13T11:14:49.287Z,-4.33
2022-12-13T11:19:53.494Z,-4.20
2022-12-13T11:24:57.611Z,-4.15
2022-12-13T11:30:01.801Z,-4.10
2022-12-13T11:35:05.962Z,-3.98
2022-12-13T11:40:10.112Z,-3.83
2022-12-13T11:45:22.572Z,-3.81
2022-12-13T11:50:33.017Z,-3.82
2022-12-13T11:55:22.627Z,-3.70
2022-12-13T12:00:34.123Z,-3.48
2022-12-13T12:05:30.971Z,-3.32
2022-12-13T12:10:35.148Z,-3.28
2022-12-13T12:15:41.542Z,-3.22
2022-12-13T12:20:43.518Z,-3.12
2022-12-13T12:25:47.651Z,-3.05
2022-12-13T12:30:51.905Z,-2.91
2022-12-13T12:35:55.968Z,-2.82
2022-12-13T12:41:16.401Z,-2.76
2022-12-13T12:46:04.385Z,-2.69
2022-12-13T12:51:08.435Z,-2.77
2022-12-13T12:56:12.632Z,-2.73
2022-12-13T13:01:16.834Z,-2.75
2022-12-13T13:06:19.067Z,-2.81
2022-12-13T13:11:23.654Z,-2.81
2022-12-13T13:16:27.501Z,-2.80
2022-12-13T13:21:31.625Z,-2.78
2022-12-13T13:26:36.763Z,-2.71
2022-12-13T13:31:40.007Z,-2.65
2022-12-13T13:36:44.096Z,-2.59
2022-12-13T13:41:48.243Z,-2.56
2022-12-13T13:46:52.406Z,-2.43
2022-12-13T13:57:00.741Z,-2.35
2022-12-13T14:02:04.958Z,-2.31
2022-12-13T14:07:09.072Z,-2.31
2022-12-13T14:12:13.248Z,-2.34
2022-12-13T14:17:17.424Z,-2.35
2022-12-13T14:22:21.599Z,-2.43
2022-12-13T14:27:25.743Z,-2.52
2022-12-13T14:32:29.952Z,-2.51
2022-12-13T14:37:34.161Z,-2.60
2022-12-13T14:42:38.224Z,-2.66
2022-12-13T14:47:42.521Z,-2.72
2022-12-13T14:52:46.594Z,-2.72
2022-12-13T14:57:50.733Z,-2.81
2022-12-13T15:02:54.922Z,-2.93
2022-12-13T15:07:59.070Z,-2.98
2022-12-13T15:13:03.249Z,-3.03
2022-12-13T15:18:07.409Z,-3.11
2022-12-13T15:28:21.170Z,-3.29
2022-12-13T15:33:19.940Z,-3.37
2022-12-13T15:38:28.185Z,-3.42
2022-12-13T15:43:28.515Z,-3.49
2022-12-13T15:48:32.407Z,-3.55
2022-12-13T15:53:36.590Z,-3.56
2022-12-13T15:58:40.818Z,-3.59
2022-12-13T16:03:45.085Z,-3.65
2022-12-13T16:08:49.113Z,-3.64
2022-12-13T16:13:58.453Z,-3.71
2022-12-13T16:18:57.463Z,-3.71
2022-12-13T16:24:01.596Z,-3.67
2022-12-13T16:29:05.789Z,-3.76
2022-12-13T16:34:09.955Z,-3.78
2022-12-13T16:39:14.117Z,-3.84
2022-12-13T16:44:18.259Z,-3.92
2022-12-13T16:49:22.457Z,-3.91
2022-12-13T16:54:26.609Z,-3.86
2022-12-13T16:59:30.800Z,-3.90
2022-12-13T17:04:34.975Z,-3.87
2022-12-13T17:09:39.123Z,-3.89
2022-12-13T17:14:43.308Z,-3.95
2022-12-13T17:19:47.431Z,-4.04
2022-12-13T17:24:51.616Z,-4.10
2022-12-13T17:29:55.796Z,-4.11
2022-12-13T17:34:59.946Z,-4.09
2022-12-13T17:40:04.093Z,-4.13
2022-12-13T17:45:08.315Z,-4.16
2022-12-13T17:50:12.487Z,-4.24
2022-12-13T17:55:18.615Z,-4.29
2022-12-13T18:00:20.788Z,-4.30
2022-12-13T18:05:24.976Z,-4.31
2022-12-13T18:10:30.303Z,-4.33
2022-12-13T18:15:33.355Z,-4.35
2022-12-13T18:20:37.545Z,-4.38
2022-12-13T18:25:41.631Z,-4.38
2022-12-13T18:30:45.883Z,-4.36
2022-12-13T18:35:48.057Z,-4.35
2022-12-13T18:40:52.257Z,-4.37
2022-12-13T18:45:56.554Z,-4.35
2022-12-13T18:51:00.579Z,-4.36
2022-12-13T18:56:04.890Z,-4.37
2022-12-13T19:01:09.529Z,-4.46
2022-12-13T19:06:13.108Z,-4.50
2022-12-13T19:11:17.299Z,-4.48
2022-12-13T19:16:21.590Z,-4.51
2022-12-13T19:21:25.597Z,-4.58
2022-12-13T19:26:29.765Z,-4.61
2022-12-13T19:31:33.993Z,-4.61
2022-12-13T19:36:38.106Z,-4.53
2022-12-13T19:46:46.568Z,-4.58
2022-12-13T19:51:50.632Z,-4.66
2022-12-13T19:56:54.794Z,-4.77
2022-12-13T20:01:59.031Z,-4.80
2022-12-13T20:07:03.100Z,-4.81
2022-12-13T20:12:07.276Z,-4.82
2022-12-13T20:17:11.472Z,-4.84
2022-12-13T20:22:15.616Z,-4.82
2022-12-13T20:27:19.831Z,-4.85
2022-12-13T20:32:23.963Z,-4.83
2022-12-13T20:37:28.178Z,-4.80
2022-12-13T20:42:32.299Z,-4.74
2022-12-13T20:47:37.867Z,-4.70
2022-12-13T20:52:40.723Z,-4.73
2022-12-13T20:57:44.795Z,-4.74
2022-12-13T21:02:48.992Z,-4.77
2022-12-13T21:07:53.141Z,-4.77
2022-12-13T21:12:57.306Z,-4.76
2022-12-13T21:18:01.452Z,-4.74
2022-12-13T21:23:05.627Z,-4.77
2022-12-13T21:28:09.817Z,-4.73
2022-12-13T21:33:13.960Z,-4.68
2022-12-13T21:38:18.181Z,-4.75
2022-12-13T21:43:22.329Z,-4.79
2022-12-13T21:48:26.502Z,-4.83
2022-12-13T21:53:30.650Z,-4.84
2022-12-13T21:58:34.835Z,-4.87
2022-12-13T22:03:39.002Z,-4.89
2022-12-13T22:08:43.173Z,-4.93
2022-12-13T22:13:48.552Z,-4.89
2022-12-13T22:18:51.468Z,-4.84
2022-12-13T22:23:55.684Z,-4.86
2022-12-13T22:28:59.814Z,-4.87
2022-12-13T22:34:04.010Z,-4.88
2022-12-13T22:39:08.163Z,-4.88
2022-12-13T22:44:12.372Z,-4.89
2022-12-13T22:49:16.518Z,-4.88
2022-12-13T22:54:20.649Z,-4.93
2022-12-13T22:59:24.829Z,-4.89
2022-12-13T23:04:29.027Z,-4.84
2022-12-13T23:09:33.203Z,-4.75
2022-12-13T23:14:37.365Z,-4.73
2022-12-13T23:19:52.835Z,-4.75
2022-12-13T23:24:45.704Z,-4.83
2022-12-13T23:29:49.843Z,-4.86
2022-12-13T23:34:54.022Z,-4.92
2022-12-13T23:39:58.198Z,-5.00
2022-12-13T23:45:02.373Z,-5.05
2022-12-13T23:50:06.539Z,-5.08
2022-12-13T23:55:10.682Z,-5.12
